sensor_id;sensor_type;location;lat;lon;timestamp;P1;durP1;ratioP1;P2;durP2;ratioP2
37001;SDS011;22913;51.910;8.374;2023-04-07T00:01:53;9.63;;;8.73;;
37001;SDS011;22913;51.910;8.374;2023-04-07T00:04:39;10.13;;;9.23;;
37001;SDS011;22913;51.910;8.374;2023-04-07T00:07:26;10.40;;;9.27;;
37001;SDS011;22913;51.910;8.374;2023-04-07T00:10:11;10.17;;;9.17;;
37001;SDS011;22913;51.910;8.374;2023-04-07T00:12:57;10.23;;;9.33;;
37001;SDS011;22913;51.910;8.374;2023-04-07T00:15:43;11.50;;;10.33;;
37001;SDS011;22913;51.910;8.374;2023-04-07T00:18:29;11.83;;;10.63;;
37001;SDS011;22913;51.910;8.374;2023-04-07T00:21:14;10.57;;;9.47;;
37001;SDS011;22913;51.910;8.374;2023-04-07T00:24:02;10.90;;;9.80;;
37001;SDS011;22913;51.910;8.374;2023-04-07T00:26:48;10.43;;;9.40;;
37001;SDS011;22913;51.910;8.374;2023-04-07T00:29:33;8.53;;;7.73;;
37001;SDS011;22913;51.910;8.374;2023-04-07T00:32:19;9.97;;;8.57;;
37001;SDS011;22913;51.910;8.374;2023-04-07T00:35:05;9.17;;;8.27;;
37001;SDS011;22913;51.910;8.374;2023-04-07T00:37:51;9.33;;;8.43;;
37001;SDS011;22913;51.910;8.374;2023-04-07T00:40:38;9.13;;;8.30;;
37001;SDS011;22913;51.910;8.374;2023-04-07T00:43:23;9.60;;;8.47;;
37001;SDS011;22913;51.910;8.374;2023-04-07T00:46:09;9.13;;;8.30;;
37001;SDS011;22913;51.910;8.374;2023-04-07T00:48:55;8.30;;;7.60;;
37001;SDS011;22913;51.910;8.374;2023-04-07T00:51:41;8.60;;;7.70;;
37001;SDS011;22913;51.910;8.374;2023-04-07T00:54:26;8.93;;;8.03;;
37001;SDS011;22913;51.910;8.374;2023-04-07T00:57:15;7.77;;;6.33;;
37001;SDS011;22913;51.910;8.374;2023-04-07T01:00:01;8.10;;;7.27;;
37001;SDS011;22913;51.910;8.374;2023-04-07T01:02:51;7.73;;;7.03;;
37001;SDS011;22913;51.910;8.374;2023-04-07T01:05:45;8.13;;;7.27;;
37001;SDS011;22913;51.910;8.374;2023-04-07T01:08:40;8.87;;;8.00;;
37001;SDS011;22913;51.910;8.374;2023-04-07T01:11:35;7.27;;;6.60;;
37001;SDS011;22913;51.910;8.374;2023-04-07T01:14:26;8.57;;;7.70;;
37001;SDS011;22913;51.910;8.374;2023-04-07T01:17:16;7.17;;;6.57;;
37001;SDS011;22913;51.910;8.374;2023-04-07T01:20:04;7.73;;;7.03;;
37001;SDS011;22913;51.910;8.374;2023-04-07T01:22:56;7.80;;;6.87;;
37001;SDS011;22913;51.910;8.374;2023-04-07T01:25:53;8.07;;;7.37;;
37001;SDS011;22913;51.910;8.374;2023-04-07T01:32:15;7.20;;;6.60;;
37001;SDS011;22913;51.910;8.374;2023-04-07T01:35:04;7.43;;;6.73;;
37001;SDS011;22913;51.910;8.374;2023-04-07T01:37:54;7.63;;;6.83;;
37001;SDS011;22913;51.910;8.374;2023-04-07T01:40:41;8.13;;;7.33;;
37001;SDS011;22913;51.910;8.374;2023-04-07T01:43:28;7.73;;;7.03;;
37001;SDS011;22913;51.910;8.374;2023-04-07T01:46:16;6.93;;;6.30;;
37001;SDS011;22913;51.910;8.374;2023-04-07T01:49:02;7.30;;;6.70;;
37001;SDS011;22913;51.910;8.374;2023-04-07T01:51:48;8.10;;;7.30;;
37001;SDS011;22913;51.910;8.374;2023-04-07T01:54:35;6.83;;;6.30;;
37001;SDS011;22913;51.910;8.374;2023-04-07T01:57:21;7.70;;;7.00;;
37001;SDS011;22913;51.910;8.374;2023-04-07T02:00:07;6.83;;;6.23;;
37001;SDS011;22913;51.910;8.374;2023-04-07T02:02:56;7.27;;;6.63;;
37001;SDS011;22913;51.910;8.374;2023-04-07T02:05:49;6.70;;;6.17;;
37001;SDS011;22913;51.910;8.374;2023-04-07T02:08:38;6.33;;;5.73;;
37001;SDS011;22913;51.910;8.374;2023-04-07T02:11:30;6.80;;;6.27;;
37001;SDS011;22913;51.910;8.374;2023-04-07T02:14:18;8.17;;;6.57;;
37001;SDS011;22913;51.910;8.374;2023-04-07T02:17:07;7.07;;;6.47;;
37001;SDS011;22913;51.910;8.374;2023-04-07T02:19:55;7.50;;;6.50;;
37001;SDS011;22913;51.910;8.374;2023-04-07T02:22:43;7.70;;;7.00;;
37001;SDS011;22913;51.910;8.374;2023-04-07T02:25:29;7.47;;;6.77;;
37001;SDS011;22913;51.910;8.374;2023-04-07T02:28:16;7.17;;;6.57;;
37001;SDS011;22913;51.910;8.374;2023-04-07T02:31:02;7.43;;;6.67;;
37001;SDS011;22913;51.910;8.374;2023-04-07T02:33:48;7.60;;;6.90;;
37001;SDS011;22913;51.910;8.374;2023-04-07T02:36:35;7.73;;;7.07;;
37001;SDS011;22913;51.910;8.374;2023-04-07T02:39:20;7.20;;;6.53;;
37001;SDS011;22913;51.910;8.374;2023-04-07T02:42:06;7.30;;;6.60;;
37001;SDS011;22913;51.910;8.374;2023-04-07T02:44:51;6.67;;;6.17;;
37001;SDS011;22913;51.910;8.374;2023-04-07T02:47:37;7.20;;;6.60;;
37001;SDS011;22913;51.910;8.374;2023-04-07T02:50:23;7.90;;;7.17;;
37001;SDS011;22913;51.910;8.374;2023-04-07T02:53:10;7.37;;;6.73;;
37001;SDS011;22913;51.910;8.374;2023-04-07T02:55:56;7.67;;;6.87;;
37001;SDS011;22913;51.910;8.374;2023-04-07T02:58:41;6.87;;;6.27;;
37001;SDS011;22913;51.910;8.374;2023-04-07T03:01:27;7.80;;;6.30;;
37001;SDS011;22913;51.910;8.374;2023-04-07T03:04:13;8.20;;;7.40;;
37001;SDS011;22913;51.910;8.374;2023-04-07T03:06:59;8.00;;;7.10;;
37001;SDS011;22913;51.910;8.374;2023-04-07T03:09:46;7.90;;;7.03;;
37001;SDS011;22913;51.910;8.374;2023-04-07T03:12:31;6.87;;;6.30;;
37001;SDS011;22913;51.910;8.374;2023-04-07T03:15:17;7.80;;;7.00;;
37001;SDS011;22913;51.910;8.374;2023-04-07T03:18:03;7.20;;;6.60;;
37001;SDS011;22913;51.910;8.374;2023-04-07T03:20:49;7.73;;;6.97;;
37001;SDS011;22913;51.910;8.374;2023-04-07T03:23:35;7.43;;;6.80;;
37001;SDS011;22913;51.910;8.374;2023-04-07T03:26:22;7.37;;;6.77;;
37001;SDS011;22913;51.910;8.374;2023-04-07T03:29:08;8.70;;;7.40;;
37001;SDS011;22913;51.910;8.374;2023-04-07T03:31:53;7.80;;;7.00;;
37001;SDS011;22913;51.910;8.374;2023-04-07T03:34:39;8.03;;;7.33;;
37001;SDS011;22913;51.910;8.374;2023-04-07T03:37:25;8.27;;;7.53;;
37001;SDS011;22913;51.910;8.374;2023-04-07T03:40:11;8.17;;;7.47;;
37001;SDS011;22913;51.910;8.374;2023-04-07T03:42:58;8.73;;;7.87;;
37001;SDS011;22913;51.910;8.374;2023-04-07T03:45:44;7.97;;;7.20;;
37001;SDS011;22913;51.910;8.374;2023-04-07T03:48:30;8.43;;;7.60;;
37001;SDS011;22913;51.910;8.374;2023-04-07T03:51:17;7.67;;;6.97;;
37001;SDS011;22913;51.910;8.374;2023-04-07T03:54:02;8.40;;;7.60;;
37001;SDS011;22913;51.910;8.374;2023-04-07T03:56:48;8.30;;;7.50;;
37001;SDS011;22913;51.910;8.374;2023-04-07T03:59:35;9.23;;;8.03;;
37001;SDS011;22913;51.910;8.374;2023-04-07T04:02:20;8.90;;;8.00;;
37001;SDS011;22913;51.910;8.374;2023-04-07T04:05:06;8.17;;;7.33;;
37001;SDS011;22913;51.910;8.374;2023-04-07T04:07:52;8.00;;;7.30;;
37001;SDS011;22913;51.910;8.374;2023-04-07T04:10:38;8.53;;;7.73;;
37001;SDS011;22913;51.910;8.374;2023-04-07T04:13:24;8.67;;;7.87;;
37001;SDS011;22913;51.910;8.374;2023-04-07T04:16:11;8.73;;;7.93;;
37001;SDS011;22913;51.910;8.374;2023-04-07T04:18:57;8.47;;;7.60;;
37001;SDS011;22913;51.910;8.374;2023-04-07T04:21:43;9.30;;;8.50;;
37001;SDS011;22913;51.910;8.374;2023-04-07T04:24:28;8.20;;;7.50;;
37001;SDS011;22913;51.910;8.374;2023-04-07T04:27:14;8.47;;;7.67;;
37001;SDS011;22913;51.910;8.374;2023-04-07T04:30:00;7.93;;;7.23;;
37001;SDS011;22913;51.910;8.374;2023-04-07T04:32:47;8.00;;;7.30;;
37001;SDS011;22913;51.910;8.374;2023-04-07T04:35:33;7.93;;;7.13;;
37001;SDS011;22913;51.910;8.374;2023-04-07T04:38:19;8.63;;;7.83;;
37001;SDS011;22913;51.910;8.374;2023-04-07T04:41:05;8.23;;;7.40;;
37001;SDS011;22913;51.910;8.374;2023-04-07T04:43:51;8.57;;;7.83;;
37001;SDS011;22913;51.910;8.374;2023-04-07T04:46:36;8.93;;;8.13;;
37001;SDS011;22913;51.910;8.374;2023-04-07T04:49:23;8.73;;;7.77;;
37001;SDS011;22913;51.910;8.374;2023-04-07T04:52:09;8.77;;;7.87;;
37001;SDS011;22913;51.910;8.374;2023-04-07T04:54:55;9.17;;;8.37;;
37001;SDS011;22913;51.910;8.374;2023-04-07T04:57:40;8.97;;;8.17;;
37001;SDS011;22913;51.910;8.374;2023-04-07T05:00:26;9.17;;;8.37;;
37001;SDS011;22913;51.910;8.374;2023-04-07T05:03:12;8.90;;;8.03;;
37001;SDS011;22913;51.910;8.374;2023-04-07T05:05:59;9.07;;;8.17;;
37001;SDS011;22913;51.910;8.374;2023-04-07T05:08:44;8.80;;;8.00;;
37001;SDS011;22913;51.910;8.374;2023-04-07T05:11:30;8.80;;;8.00;;
37001;SDS011;22913;51.910;8.374;2023-04-07T05:14:16;8.50;;;7.70;;
37001;SDS011;22913;51.910;8.374;2023-04-07T05:17:02;9.70;;;8.80;;
37001;SDS011;22913;51.910;8.374;2023-04-07T05:19:47;8.47;;;7.67;;
37001;SDS011;22913;51.910;8.374;2023-04-07T05:22:34;10.23;;;8.60;;
37001;SDS011;22913;51.910;8.374;2023-04-07T05:25:20;8.90;;;8.00;;
37001;SDS011;22913;51.910;8.374;2023-04-07T05:28:06;8.10;;;7.40;;
37001;SDS011;22913;51.910;8.374;2023-04-07T05:30:52;8.57;;;7.77;;
37001;SDS011;22913;51.910;8.374;2023-04-07T05:33:37;8.10;;;7.33;;
37001;SDS011;22913;51.910;8.374;2023-04-07T05:36:23;8.97;;;7.70;;
37001;SDS011;22913;51.910;8.374;2023-04-07T05:39:11;8.97;;;8.17;;
37001;SDS011;22913;51.910;8.374;2023-04-07T05:41:57;9.20;;;8.30;;
37001;SDS011;22913;51.910;8.374;2023-04-07T05:44:42;8.40;;;7.60;;
37001;SDS011;22913;51.910;8.374;2023-04-07T05:47:29;9.20;;;8.30;;
37001;SDS011;22913;51.910;8.374;2023-04-07T05:50:15;9.03;;;8.23;;
37001;SDS011;22913;51.910;8.374;2023-04-07T05:53:00;8.20;;;7.50;;
37001;SDS011;22913;51.910;8.374;2023-04-07T05:55:47;8.77;;;7.97;;
37001;SDS011;22913;51.910;8.374;2023-04-07T05:58:33;8.77;;;7.97;;
37001;SDS011;22913;51.910;8.374;2023-04-07T06:01:19;8.00;;;7.23;;
37001;SDS011;22913;51.910;8.374;2023-04-07T06:04:04;7.67;;;6.97;;
37001;SDS011;22913;51.910;8.374;2023-04-07T06:06:50;8.47;;;7.77;;
37001;SDS011;22913;51.910;8.374;2023-04-07T06:09:38;8.60;;;7.80;;
37001;SDS011;22913;51.910;8.374;2023-04-07T06:12:26;8.80;;;8.00;;
37001;SDS011;22913;51.910;8.374;2023-04-07T06:15:12;9.47;;;8.47;;
37001;SDS011;22913;51.910;8.374;2023-04-07T06:17:57;8.43;;;7.73;;
37001;SDS011;22913;51.910;8.374;2023-04-07T06:20:43;9.37;;;8.43;;
37001;SDS011;22913;51.910;8.374;2023-04-07T06:23:29;8.97;;;8.13;;
37001;SDS011;22913;51.910;8.374;2023-04-07T06:26:14;9.17;;;8.33;;
37001;SDS011;22913;51.910;8.374;2023-04-07T06:29:02;9.20;;;8.30;;
37001;SDS011;22913;51.910;8.374;2023-04-07T06:31:47;8.70;;;7.90;;
37001;SDS011;22913;51.910;8.374;2023-04-07T06:34:32;9.73;;;8.73;;
37001;SDS011;22913;51.910;8.374;2023-04-07T06:37:19;8.83;;;8.03;;
37001;SDS011;22913;51.910;8.374;2023-04-07T06:40:07;10.80;;;8.57;;
37001;SDS011;22913;51.910;8.374;2023-04-07T06:42:53;8.97;;;8.10;;
37001;SDS011;22913;51.910;8.374;2023-04-07T06:45:40;9.77;;;8.97;;
37001;SDS011;22913;51.910;8.374;2023-04-07T06:48:26;9.13;;;8.17;;
37001;SDS011;22913;51.910;8.374;2023-04-07T06:51:11;8.67;;;7.77;;
37001;SDS011;22913;51.910;8.374;2023-04-07T06:53:57;9.37;;;8.47;;
37001;SDS011;22913;51.910;8.374;2023-04-07T06:56:43;8.47;;;7.77;;
37001;SDS011;22913;51.910;8.374;2023-04-07T06:59:28;9.23;;;8.37;;
37001;SDS011;22913;51.910;8.374;2023-04-07T07:02:15;8.37;;;7.67;;
37001;SDS011;22913;51.910;8.374;2023-04-07T07:05:01;8.93;;;8.03;;
37001;SDS011;22913;51.910;8.374;2023-04-07T07:07:47;9.13;;;8.33;;
37001;SDS011;22913;51.910;8.374;2023-04-07T07:10:33;8.57;;;7.67;;
37001;SDS011;22913;51.910;8.374;2023-04-07T07:13:19;8.33;;;7.63;;
37001;SDS011;22913;51.910;8.374;2023-04-07T07:16:07;8.23;;;7.53;;
37001;SDS011;22913;51.910;8.374;2023-04-07T07:18:55;8.43;;;7.63;;
37001;SDS011;22913;51.910;8.374;2023-04-07T07:21:40;8.43;;;7.67;;
37001;SDS011;22913;51.910;8.374;2023-04-07T07:24:26;9.17;;;7.73;;
37001;SDS011;22913;51.910;8.374;2023-04-07T07:27:12;8.57;;;7.87;;
37001;SDS011;22913;51.910;8.374;2023-04-07T07:29:58;8.13;;;7.20;;
37001;SDS011;22913;51.910;8.374;2023-04-07T07:32:43;6.83;;;6.23;;
37001;SDS011;22913;51.910;8.374;2023-04-07T07:35:30;7.00;;;6.47;;
37001;SDS011;22913;51.910;8.374;2023-04-07T07:38:16;6.57;;;5.97;;
37001;SDS011;22913;51.910;8.374;2023-04-07T07:41:02;7.63;;;7.00;;
37001;SDS011;22913;51.910;8.374;2023-04-07T07:43:48;6.90;;;6.30;;
37001;SDS011;22913;51.910;8.374;2023-04-07T07:46:33;7.20;;;6.50;;
37001;SDS011;22913;51.910;8.374;2023-04-07T07:49:19;8.23;;;6.50;;
37001;SDS011;22913;51.910;8.374;2023-04-07T07:52:06;6.77;;;6.17;;
37001;SDS011;22913;51.910;8.374;2023-04-07T07:54:53;6.87;;;6.20;;
37001;SDS011;22913;51.910;8.374;2023-04-07T07:57:39;6.90;;;6.27;;
37001;SDS011;22913;51.910;8.374;2023-04-07T08:00:24;5.87;;;5.43;;
37001;SDS011;22913;51.910;8.374;2023-04-07T08:03:11;4.83;;;4.43;;
37001;SDS011;22913;51.910;8.374;2023-04-07T08:05:56;4.97;;;4.57;;
37001;SDS011;22913;51.910;8.374;2023-04-07T08:08:43;4.87;;;4.47;;
37001;SDS011;22913;51.910;8.374;2023-04-07T08:11:29;4.43;;;4.00;;
37001;SDS011;22913;51.910;8.374;2023-04-07T08:14:14;4.13;;;3.83;;
37001;SDS011;22913;51.910;8.374;2023-04-07T08:17:00;4.60;;;4.20;;
37001;SDS011;22913;51.910;8.374;2023-04-07T08:19:46;4.37;;;4.00;;
37001;SDS011;22913;51.910;8.374;2023-04-07T08:22:31;4.17;;;3.80;;
37001;SDS011;22913;51.910;8.374;2023-04-07T08:25:18;3.97;;;3.67;;
37001;SDS011;22913;51.910;8.374;2023-04-07T08:28:04;5.40;;;4.40;;
37001;SDS011;22913;51.910;8.374;2023-04-07T08:30:50;4.50;;;4.20;;
37001;SDS011;22913;51.910;8.374;2023-04-07T08:33:35;4.33;;;4.03;;
37001;SDS011;22913;51.910;8.374;2023-04-07T08:36:21;4.23;;;3.93;;
37001;SDS011;22913;51.910;8.374;2023-04-07T08:39:07;3.90;;;3.60;;
37001;SDS011;22913;51.910;8.374;2023-04-07T08:41:54;4.27;;;3.97;;
37001;SDS011;22913;51.910;8.374;2023-04-07T08:44:41;3.73;;;3.43;;
37001;SDS011;22913;51.910;8.374;2023-04-07T08:47:27;3.80;;;3.50;;
37001;SDS011;22913;51.910;8.374;2023-04-07T08:50:15;3.50;;;3.30;;
37001;SDS011;22913;51.910;8.374;2023-04-07T08:53:02;3.87;;;3.57;;
37001;SDS011;22913;51.910;8.374;2023-04-07T08:55:51;5.10;;;3.83;;
37001;SDS011;22913;51.910;8.374;2023-04-07T08:58:38;4.63;;;3.57;;
37001;SDS011;22913;51.910;8.374;2023-04-07T09:01:25;3.83;;;3.60;;
37001;SDS011;22913;51.910;8.374;2023-04-07T09:04:11;4.10;;;3.80;;
37001;SDS011;22913;51.910;8.374;2023-04-07T09:06:57;3.63;;;3.43;;
37001;SDS011;22913;51.910;8.374;2023-04-07T09:09:44;4.13;;;3.83;;
37001;SDS011;22913;51.910;8.374;2023-04-07T09:12:31;3.93;;;3.63;;
37001;SDS011;22913;51.910;8.374;2023-04-07T09:15:19;3.93;;;3.63;;
37001;SDS011;22913;51.910;8.374;2023-04-07T09:18:05;3.97;;;3.67;;
37001;SDS011;22913;51.910;8.374;2023-04-07T09:20:54;3.50;;;3.20;;
37001;SDS011;22913;51.910;8.374;2023-04-07T09:23:41;3.20;;;2.93;;
37001;SDS011;22913;51.910;8.374;2023-04-07T09:26:27;3.57;;;3.37;;
37001;SDS011;22913;51.910;8.374;2023-04-07T09:29:17;3.20;;;3.00;;
37001;SDS011;22913;51.910;8.374;2023-04-07T09:32:05;3.40;;;3.10;;
37001;SDS011;22913;51.910;8.374;2023-04-07T09:34:56;3.30;;;3.00;;
37001;SDS011;22913;51.910;8.374;2023-04-07T09:37:43;3.47;;;3.27;;
37001;SDS011;22913;51.910;8.374;2023-04-07T09:40:28;3.10;;;2.90;;
37001;SDS011;22913;51.910;8.374;2023-04-07T09:43:15;3.43;;;3.13;;
37001;SDS011;22913;51.910;8.374;2023-04-07T09:46:06;3.20;;;2.90;;
37001;SDS011;22913;51.910;8.374;2023-04-07T09:49:01;2.80;;;2.60;;
37001;SDS011;22913;51.910;8.374;2023-04-07T09:51:52;3.03;;;2.83;;
37001;SDS011;22913;51.910;8.374;2023-04-07T09:54:39;2.97;;;2.77;;
37001;SDS011;22913;51.910;8.374;2023-04-07T09:57:25;3.77;;;3.47;;
37001;SDS011;22913;51.910;8.374;2023-04-07T10:00:11;3.03;;;2.83;;
37001;SDS011;22913;51.910;8.374;2023-04-07T10:02:57;2.90;;;2.70;;
37001;SDS011;22913;51.910;8.374;2023-04-07T10:05:46;2.67;;;2.53;;
37001;SDS011;22913;51.910;8.374;2023-04-07T10:08:33;2.50;;;2.40;;
37001;SDS011;22913;51.910;8.374;2023-04-07T10:11:20;3.00;;;2.80;;
37001;SDS011;22913;51.910;8.374;2023-04-07T10:14:05;3.17;;;2.83;;
37001;SDS011;22913;51.910;8.374;2023-04-07T10:16:52;2.67;;;2.50;;
37001;SDS011;22913;51.910;8.374;2023-04-07T10:19:38;2.87;;;2.67;;
37001;SDS011;22913;51.910;8.374;2023-04-07T10:22:25;2.70;;;2.50;;
37001;SDS011;22913;51.910;8.374;2023-04-07T10:25:13;3.10;;;2.83;;
37001;SDS011;22913;51.910;8.374;2023-04-07T10:28:03;2.90;;;2.70;;
37001;SDS011;22913;51.910;8.374;2023-04-07T10:30:51;2.67;;;2.47;;
37001;SDS011;22913;51.910;8.374;2023-04-07T10:33:44;3.30;;;2.20;;
37001;SDS011;22913;51.910;8.374;2023-04-07T10:36:31;3.03;;;2.83;;
37001;SDS011;22913;51.910;8.374;2023-04-07T10:39:22;2.90;;;2.70;;
37001;SDS011;22913;51.910;8.374;2023-04-07T10:42:11;3.07;;;2.87;;
37001;SDS011;22913;51.910;8.374;2023-04-07T10:48:41;3.50;;;2.60;;
37001;SDS011;22913;51.910;8.374;2023-04-07T10:51:57;3.03;;;2.83;;
37001;SDS011;22913;51.910;8.374;2023-04-07T10:55:29;2.60;;;2.50;;
37001;SDS011;22913;51.910;8.374;2023-04-07T10:58:17;2.50;;;2.30;;
37001;SDS011;22913;51.910;8.374;2023-04-07T11:04:13;2.70;;;2.50;;
37001;SDS011;22913;51.910;8.374;2023-04-07T11:06:59;4.57;;;2.70;;
37001;SDS011;22913;51.910;8.374;2023-04-07T11:09:44;2.57;;;2.47;;
37001;SDS011;22913;51.910;8.374;2023-04-07T11:12:31;2.50;;;2.40;;
37001;SDS011;22913;51.910;8.374;2023-04-07T11:15:18;2.53;;;2.40;;
37001;SDS011;22913;51.910;8.374;2023-04-07T11:18:08;1.97;;;1.87;;
37001;SDS011;22913;51.910;8.374;2023-04-07T11:20:56;2.00;;;1.90;;
37001;SDS011;22913;51.910;8.374;2023-04-07T11:23:42;2.10;;;2.00;;
37001;SDS011;22913;51.910;8.374;2023-04-07T11:26:29;2.00;;;1.90;;
37001;SDS011;22913;51.910;8.374;2023-04-07T11:29:27;2.40;;;2.30;;
37001;SDS011;22913;51.910;8.374;2023-04-07T11:32:13;2.83;;;2.37;;
37001;SDS011;22913;51.910;8.374;2023-04-07T11:34:59;2.17;;;2.07;;
37001;SDS011;22913;51.910;8.374;2023-04-07T11:37:45;2.10;;;2.00;;
37001;SDS011;22913;51.910;8.374;2023-04-07T11:40:31;2.73;;;2.53;;
37001;SDS011;22913;51.910;8.374;2023-04-07T11:43:18;3.43;;;2.13;;
37001;SDS011;22913;51.910;8.374;2023-04-07T11:46:07;2.40;;;2.30;;
37001;SDS011;22913;51.910;8.374;2023-04-07T11:48:54;2.30;;;2.20;;
37001;SDS011;22913;51.910;8.374;2023-04-07T11:51:56;1.90;;;1.80;;
37001;SDS011;22913;51.910;8.374;2023-04-07T11:54:45;2.20;;;2.10;;
37001;SDS011;22913;51.910;8.374;2023-04-07T11:57:32;2.30;;;2.10;;
37001;SDS011;22913;51.910;8.374;2023-04-07T12:00:18;2.30;;;2.10;;
37001;SDS011;22913;51.910;8.374;2023-04-07T12:03:11;2.40;;;2.30;;
37001;SDS011;22913;51.910;8.374;2023-04-07T12:05:58;2.43;;;2.33;;
37001;SDS011;22913;51.910;8.374;2023-04-07T12:08:44;2.73;;;2.53;;
37001;SDS011;22913;51.910;8.374;2023-04-07T12:11:30;2.40;;;2.27;;
37001;SDS011;22913;51.910;8.374;2023-04-07T12:14:15;2.13;;;1.93;;
37001;SDS011;22913;51.910;8.374;2023-04-07T12:17:01;2.57;;;2.37;;
37001;SDS011;22913;51.910;8.374;2023-04-07T12:19:48;2.33;;;2.13;;
37001;SDS011;22913;51.910;8.374;2023-04-07T12:22:34;2.60;;;2.17;;
37001;SDS011;22913;51.910;8.374;2023-04-07T12:25:20;2.00;;;1.90;;
37001;SDS011;22913;51.910;8.374;2023-04-07T12:28:05;1.90;;;1.80;;
37001;SDS011;22913;51.910;8.374;2023-04-07T12:30:51;2.40;;;2.30;;
37001;SDS011;22913;51.910;8.374;2023-04-07T12:33:36;2.80;;;2.60;;
37001;SDS011;22913;51.910;8.374;2023-04-07T12:36:24;2.90;;;2.70;;
37001;SDS011;22913;51.910;8.374;2023-04-07T12:39:09;2.77;;;2.57;;
37001;SDS011;22913;51.910;8.374;2023-04-07T12:41:55;2.90;;;2.70;;
37001;SDS011;22913;51.910;8.374;2023-04-07T12:44:41;3.00;;;2.80;;
37001;SDS011;22913;51.910;8.374;2023-04-07T12:47:26;2.70;;;2.50;;
37001;SDS011;22913;51.910;8.374;2023-04-07T12:50:12;2.80;;;2.60;;
37001;SDS011;22913;51.910;8.374;2023-04-07T12:52:59;3.23;;;2.77;;
37001;SDS011;22913;51.910;8.374;2023-04-07T12:55:47;2.93;;;2.50;;
37001;SDS011;22913;51.910;8.374;2023-04-07T12:58:32;3.20;;;3.00;;
37001;SDS011;22913;51.910;8.374;2023-04-07T13:01:18;3.43;;;3.13;;
37001;SDS011;22913;51.910;8.374;2023-04-07T13:04:04;3.30;;;3.00;;
37001;SDS011;22913;51.910;8.374;2023-04-07T13:06:49;2.90;;;2.70;;
37001;SDS011;22913;51.910;8.374;2023-04-07T13:09:36;2.93;;;2.73;;
37001;SDS011;22913;51.910;8.374;2023-04-07T13:12:22;2.50;;;2.30;;
37001;SDS011;22913;51.910;8.374;2023-04-07T13:15:08;2.60;;;2.50;;
37001;SDS011;22913;51.910;8.374;2023-04-07T13:17:53;2.60;;;2.40;;
37001;SDS011;22913;51.910;8.374;2023-04-07T13:20:39;2.70;;;2.50;;
37001;SDS011;22913;51.910;8.374;2023-04-07T13:23:25;2.70;;;2.60;;
37001;SDS011;22913;51.910;8.374;2023-04-07T13:26:12;2.73;;;2.53;;
37001;SDS011;22913;51.910;8.374;2023-04-07T13:28:58;2.90;;;2.70;;
37001;SDS011;22913;51.910;8.374;2023-04-07T13:31:44;3.17;;;2.97;;
37001;SDS011;22913;51.910;8.374;2023-04-07T13:34:30;3.10;;;2.90;;
37001;SDS011;22913;51.910;8.374;2023-04-07T13:37:16;3.30;;;2.97;;
37001;SDS011;22913;51.910;8.374;2023-04-07T13:40:02;3.70;;;3.40;;
37001;SDS011;22913;51.910;8.374;2023-04-07T13:42:50;3.70;;;3.40;;
37001;SDS011;22913;51.910;8.374;2023-04-07T13:45:35;3.37;;;3.17;;
37001;SDS011;22913;51.910;8.374;2023-04-07T13:48:21;3.93;;;3.63;;
37001;SDS011;22913;51.910;8.374;2023-04-07T13:51:07;3.57;;;3.37;;
37001;SDS011;22913;51.910;8.374;2023-04-07T13:53:53;3.50;;;3.30;;
37001;SDS011;22913;51.910;8.374;2023-04-07T13:56:39;4.30;;;4.00;;
37001;SDS011;22913;51.910;8.374;2023-04-07T13:59:26;3.53;;;3.33;;
37001;SDS011;22913;51.910;8.374;2023-04-07T14:02:12;3.60;;;3.40;;
37001;SDS011;22913;51.910;8.374;2023-04-07T14:04:57;3.67;;;3.47;;
37001;SDS011;22913;51.910;8.374;2023-04-07T14:07:43;3.33;;;3.10;;
37001;SDS011;22913;51.910;8.374;2023-04-07T14:10:29;3.30;;;2.97;;
37001;SDS011;22913;51.910;8.374;2023-04-07T14:13:16;4.33;;;3.20;;
37001;SDS011;22913;51.910;8.374;2023-04-07T14:16:03;3.60;;;3.33;;
37001;SDS011;22913;51.910;8.374;2023-04-07T14:18:49;3.93;;;3.63;;
37001;SDS011;22913;51.910;8.374;2023-04-07T14:21:34;3.83;;;3.63;;
37001;SDS011;22913;51.910;8.374;2023-04-07T14:24:20;4.10;;;3.80;;
37001;SDS011;22913;51.910;8.374;2023-04-07T14:27:05;3.67;;;3.40;;
37001;SDS011;22913;51.910;8.374;2023-04-07T14:29:51;3.60;;;3.40;;
37001;SDS011;22913;51.910;8.374;2023-04-07T14:32:40;3.30;;;3.10;;
37001;SDS011;22913;51.910;8.374;2023-04-07T14:35:26;3.80;;;3.50;;
37001;SDS011;22913;51.910;8.374;2023-04-07T14:38:11;3.87;;;3.67;;
37001;SDS011;22913;51.910;8.374;2023-04-07T14:40:57;3.50;;;3.30;;
37001;SDS011;22913;51.910;8.374;2023-04-07T14:43:43;3.97;;;3.77;;
37001;SDS011;22913;51.910;8.374;2023-04-07T14:46:30;3.10;;;2.90;;
37001;SDS011;22913;51.910;8.374;2023-04-07T14:49:17;3.23;;;3.03;;
37001;SDS011;22913;51.910;8.374;2023-04-07T14:52:02;2.87;;;2.67;;
37001;SDS011;22913;51.910;8.374;2023-04-07T14:54:48;2.73;;;2.63;;
37001;SDS011;22913;51.910;8.374;2023-04-07T14:57:34;2.70;;;2.60;;
37001;SDS011;22913;51.910;8.374;2023-04-07T15:00:19;3.07;;;2.87;;
37001;SDS011;22913;51.910;8.374;2023-04-07T15:03:05;3.43;;;3.23;;
37001;SDS011;22913;51.910;8.374;2023-04-07T15:05:52;3.23;;;3.03;;
37001;SDS011;22913;51.910;8.374;2023-04-07T15:08:38;3.67;;;3.37;;
37001;SDS011;22913;51.910;8.374;2023-04-07T15:11:24;3.43;;;3.17;;
37001;SDS011;22913;51.910;8.374;2023-04-07T15:14:10;3.50;;;3.30;;
37001;SDS011;22913;51.910;8.374;2023-04-07T15:16:55;3.73;;;3.30;;
37001;SDS011;22913;51.910;8.374;2023-04-07T15:19:41;3.47;;;3.20;;
37001;SDS011;22913;51.910;8.374;2023-04-07T15:22:28;3.50;;;3.20;;
37001;SDS011;22913;51.910;8.374;2023-04-07T15:25:14;3.40;;;3.20;;
37001;SDS011;22913;51.910;8.374;2023-04-07T15:27:59;3.50;;;3.30;;
37001;SDS011;22913;51.910;8.374;2023-04-07T15:30:45;4.10;;;3.80;;
37001;SDS011;22913;51.910;8.374;2023-04-07T15:33:31;3.57;;;3.37;;
37001;SDS011;22913;51.910;8.374;2023-04-07T15:36:17;3.40;;;3.20;;
37001;SDS011;22913;51.910;8.374;2023-04-07T15:39:04;3.70;;;3.50;;
37001;SDS011;22913;51.910;8.374;2023-04-07T15:41:50;3.80;;;3.50;;
37001;SDS011;22913;51.910;8.374;2023-04-07T15:44:36;3.17;;;2.97;;
37001;SDS011;22913;51.910;8.374;2023-04-07T15:47:22;3.10;;;2.90;;
37001;SDS011;22913;51.910;8.374;2023-04-07T15:50:08;3.10;;;2.90;;
37001;SDS011;22913;51.910;8.374;2023-04-07T15:52:54;3.60;;;3.30;;
37001;SDS011;22913;51.910;8.374;2023-04-07T15:55:41;3.33;;;3.07;;
37001;SDS011;22913;51.910;8.374;2023-04-07T15:58:27;3.33;;;3.13;;
37001;SDS011;22913;51.910;8.374;2023-04-07T16:01:14;3.13;;;2.93;;
37001;SDS011;22913;51.910;8.374;2023-04-07T16:04:00;3.70;;;3.40;;
37001;SDS011;22913;51.910;8.374;2023-04-07T16:06:46;3.90;;;3.23;;
37001;SDS011;22913;51.910;8.374;2023-04-07T16:09:31;3.60;;;3.40;;
37001;SDS011;22913;51.910;8.374;2023-04-07T16:12:18;3.07;;;2.87;;
37001;SDS011;22913;51.910;8.374;2023-04-07T16:15:05;3.63;;;3.43;;
37001;SDS011;22913;51.910;8.374;2023-04-07T16:17:52;4.00;;;3.60;;
37001;SDS011;22913;51.910;8.374;2023-04-07T16:20:38;3.43;;;3.17;;
37001;SDS011;22913;51.910;8.374;2023-04-07T16:23:23;3.67;;;3.47;;
37001;SDS011;22913;51.910;8.374;2023-04-07T16:26:09;3.97;;;3.40;;
37001;SDS011;22913;51.910;8.374;2023-04-07T16:28:56;3.60;;;3.30;;
37001;SDS011;22913;51.910;8.374;2023-04-07T16:31:41;3.90;;;3.60;;
37001;SDS011;22913;51.910;8.374;2023-04-07T16:34:28;3.33;;;3.03;;
37001;SDS011;22913;51.910;8.374;2023-04-07T16:37:13;4.20;;;3.80;;
37001;SDS011;22913;51.910;8.374;2023-04-07T16:39:59;3.43;;;3.23;;
37001;SDS011;22913;51.910;8.374;2023-04-07T16:42:46;3.43;;;3.17;;
37001;SDS011;22913;51.910;8.374;2023-04-07T16:45:33;3.80;;;3.50;;
37001;SDS011;22913;51.910;8.374;2023-04-07T16:48:19;5.20;;;3.50;;
37001;SDS011;22913;51.910;8.374;2023-04-07T16:51:05;4.53;;;4.10;;
37001;SDS011;22913;51.910;8.374;2023-04-07T16:53:50;5.47;;;3.90;;
37001;SDS011;22913;51.910;8.374;2023-04-07T16:56:36;3.90;;;3.60;;